sensor_id;sensor_type;location;lat;lon;timestamp;temperature;humidity
11848;DHT22;5983;49.966;8.052;2022-09-29T00:02:10;7.60;99.90
11848;DHT22;5983;49.966;8.052;2022-09-29T00:04:38;7.50;99.90
11848;DHT22;5983;49.966;8.052;2022-09-29T00:07:05;7.50;99.90
11848;DHT22;5983;49.966;8.052;2022-09-29T00:09:32;7.50;99.90
11848;DHT22;5983;49.966;8.052;2022-09-29T00:11:59;7.50;99.90
11848;DHT22;5983;49.966;8.052;2022-09-29T00:14:27;7.40;99.90
11848;DHT22;5983;49.966;8.052;2022-09-29T00:16:54;7.40;99.90
11848;DHT22;5983;49.966;8.052;2022-09-29T00:19:21;7.40;99.90
11848;DHT22;5983;49.966;8.052;2022-09-29T00:21:51;7.40;99.90
11848;DHT22;5983;49.966;8.052;2022-09-29T00:24:18;7.40;99.90
11848;DHT22;5983;49.966;8.052;2022-09-29T00:26:45;7.30;99.90
11848;DHT22;5983;49.966;8.052;2022-09-29T00:29:12;7.30;99.90
11848;DHT22;5983;49.966;8.052;2022-09-29T00:31:39;7.30;99.90
11848;DHT22;5983;49.966;8.052;2022-09-29T00:34:06;7.30;99.90
11848;DHT22;5983;49.966;8.052;2022-09-29T00:36:33;7.30;99.90
11848;DHT22;5983;49.966;8.052;2022-09-29T00:39:01;7.30;99.90
11848;DHT22;5983;49.966;8.052;2022-09-29T00:41:30;7.20;99.90
11848;DHT22;5983;49.966;8.052;2022-09-29T00:44:00;7.20;99.90
11848;DHT22;5983;49.966;8.052;2022-09-29T00:46:41;7.10;99.90
11848;DHT22;5983;49.966;8.052;2022-09-29T00:49:16;7.10;99.90
11848;DHT22;5983;49.966;8.052;2022-09-29T00:51:48;7.10;99.90
11848;DHT22;5983;49.966;8.052;2022-09-29T00:54:20;7.10;99.90
11848;DHT22;5983;49.966;8.052;2022-09-29T00:56:52;7.10;99.90
11848;DHT22;5983;49.966;8.052;2022-09-29T00:59:26;7.10;99.90
11848;DHT22;5983;49.966;8.052;2022-09-29T01:01:58;7.10;99.90
11848;DHT22;5983;49.966;8.052;2022-09-29T01:04:25;7.00;99.90
11848;DHT22;5983;49.966;8.052;2022-09-29T01:06:55;7.00;99.90
11848;DHT22;5983;49.966;8.052;2022-09-29T01:09:28;7.00;99.90
11848;DHT22;5983;49.966;8.052;2022-09-29T01:11:58;6.90;99.90
11848;DHT22;5983;49.966;8.052;2022-09-29T01:14:28;7.00;99.90
11848;DHT22;5983;49.966;8.052;2022-09-29T01:16:56;6.90;99.90
11848;DHT22;5983;49.966;8.052;2022-09-29T01:19:31;6.90;99.90
11848;DHT22;5983;49.966;8.052;2022-09-29T01:22:20;6.90;99.90
11848;DHT22;5983;49.966;8.052;2022-09-29T01:25:14;6.90;99.90
11848;DHT22;5983;49.966;8.052;2022-09-29T01:31:20;6.70;99.90
11848;DHT22;5983;49.966;8.052;2022-09-29T01:33:56;6.70;99.90
11848;DHT22;5983;49.966;8.052;2022-09-29T01:36:35;6.70;99.90
11848;DHT22;5983;49.966;8.052;2022-09-29T01:39:18;6.60;99.90
11848;DHT22;5983;49.966;8.052;2022-09-29T01:41:55;6.60;99.90
11848;DHT22;5983;49.966;8.052;2022-09-29T01:44:31;6.60;99.90
11848;DHT22;5983;49.966;8.052;2022-09-29T01:47:07;6.50;99.90
11848;DHT22;5983;49.966;8.052;2022-09-29T01:49:39;6.50;99.90
11848;DHT22;5983;49.966;8.052;2022-09-29T01:52:12;6.50;99.90
11848;DHT22;5983;49.966;8.052;2022-09-29T01:54:46;6.40;99.90
11848;DHT22;5983;49.966;8.052;2022-09-29T01:57:20;6.40;99.90
11848;DHT22;5983;49.966;8.052;2022-09-29T01:59:55;6.40;99.90
11848;DHT22;5983;49.966;8.052;2022-09-29T02:02:32;6.40;99.90
11848;DHT22;5983;49.966;8.052;2022-09-29T02:05:06;6.40;99.90
11848;DHT22;5983;49.966;8.052;2022-09-29T02:07:37;6.40;99.90
11848;DHT22;5983;49.966;8.052;2022-09-29T02:10:11;6.40;99.90
11848;DHT22;5983;49.966;8.052;2022-09-29T02:12:43;6.40;99.90
11848;DHT22;5983;49.966;8.052;2022-09-29T02:15:15;6.30;99.90
11848;DHT22;5983;49.966;8.052;2022-09-29T02:17:47;6.30;99.90
11848;DHT22;5983;49.966;8.052;2022-09-29T02:20:16;6.30;99.90
11848;DHT22;5983;49.966;8.052;2022-09-29T02:22:45;6.30;99.90
11848;DHT22;5983;49.966;8.052;2022-09-29T02:25:16;6.30;99.90
11848;DHT22;5983;49.966;8.052;2022-09-29T02:27:46;6.30;99.90
11848;DHT22;5983;49.966;8.052;2022-09-29T02:30:13;6.30;99.90
11848;DHT22;5983;49.966;8.052;2022-09-29T02:32:41;6.20;99.90
11848;DHT22;5983;49.966;8.052;2022-09-29T02:35:11;6.20;99.90
11848;DHT22;5983;49.966;8.052;2022-09-29T02:37:54;6.20;99.90
11848;DHT22;5983;49.966;8.052;2022-09-29T02:40:40;6.20;99.90
11848;DHT22;5983;49.966;8.052;2022-09-29T02:43:27;6.10;99.90
11848;DHT22;5983;49.966;8.052;2022-09-29T02:46:18;6.00;99.90
11848;DHT22;5983;49.966;8.052;2022-09-29T02:52:01;6.00;99.90
11848;DHT22;5983;49.966;8.052;2022-09-29T02:54:45;6.00;99.90
11848;DHT22;5983;49.966;8.052;2022-09-29T02:57:26;6.00;99.90
11848;DHT22;5983;49.966;8.052;2022-09-29T03:00:03;6.10;99.90
11848;DHT22;5983;49.966;8.052;2022-09-29T03:02:34;6.00;99.90
11848;DHT22;5983;49.966;8.052;2022-09-29T03:05:02;6.00;99.90
11848;DHT22;5983;49.966;8.052;2022-09-29T03:07:31;6.00;99.90
11848;DHT22;5983;49.966;8.052;2022-09-29T03:09:57;5.90;99.90
11848;DHT22;5983;49.966;8.052;2022-09-29T03:12:24;5.90;99.90
11848;DHT22;5983;49.966;8.052;2022-09-29T03:14:51;5.80;99.90
11848;DHT22;5983;49.966;8.052;2022-09-29T03:17:18;5.80;99.90
11848;DHT22;5983;49.966;8.052;2022-09-29T03:19:45;5.80;99.90
11848;DHT22;5983;49.966;8.052;2022-09-29T03:22:12;5.80;99.90
11848;DHT22;5983;49.966;8.052;2022-09-29T03:24:41;5.80;99.90
11848;DHT22;5983;49.966;8.052;2022-09-29T03:27:08;5.70;99.90
11848;DHT22;5983;49.966;8.052;2022-09-29T03:29:35;5.80;99.90
11848;DHT22;5983;49.966;8.052;2022-09-29T03:32:03;5.70;99.90
11848;DHT22;5983;49.966;8.052;2022-09-29T03:34:31;5.70;99.90
11848;DHT22;5983;49.966;8.052;2022-09-29T03:36:58;5.70;99.90
11848;DHT22;5983;49.966;8.052;2022-09-29T03:39:26;5.70;99.90
11848;DHT22;5983;49.966;8.052;2022-09-29T03:41:55;5.70;99.90
11848;DHT22;5983;49.966;8.052;2022-09-29T03:44:22;5.60;99.90
11848;DHT22;5983;49.966;8.052;2022-09-29T03:46:49;5.60;99.90
11848;DHT22;5983;49.966;8.052;2022-09-29T03:49:16;5.60;99.90
11848;DHT22;5983;49.966;8.052;2022-09-29T03:51:43;5.60;99.90
11848;DHT22;5983;49.966;8.052;2022-09-29T03:54:10;5.60;99.90
11848;DHT22;5983;49.966;8.052;2022-09-29T03:56:37;5.60;99.90
11848;DHT22;5983;49.966;8.052;2022-09-29T03:59:07;5.60;99.90
11848;DHT22;5983;49.966;8.052;2022-09-29T04:01:36;5.60;99.90
11848;DHT22;5983;49.966;8.052;2022-09-29T04:04:04;5.60;99.90
11848;DHT22;5983;49.966;8.052;2022-09-29T04:06:31;5.60;99.90
11848;DHT22;5983;49.966;8.052;2022-09-29T04:08:58;5.60;99.90
11848;DHT22;5983;49.966;8.052;2022-09-29T04:11:25;5.60;99.90
11848;DHT22;5983;49.966;8.052;2022-09-29T04:13:53;5.60;99.90
11848;DHT22;5983;49.966;8.052;2022-09-29T04:16:21;5.60;99.90
11848;DHT22;5983;49.966;8.052;2022-09-29T04:18:48;5.60;99.90
11848;DHT22;5983;49.966;8.052;2022-09-29T04:21:15;5.60;99.90
11848;DHT22;5983;49.966;8.052;2022-09-29T04:23:42;5.50;99.90
11848;DHT22;5983;49.966;8.052;2022-09-29T04:26:09;5.50;99.90
11848;DHT22;5983;49.966;8.052;2022-09-29T04:28:37;5.50;99.90
11848;DHT22;5983;49.966;8.052;2022-09-29T04:31:05;5.40;99.90
11848;DHT22;5983;49.966;8.052;2022-09-29T04:33:33;5.40;99.90
11848;DHT22;5983;49.966;8.052;2022-09-29T04:36:01;5.40;99.90
11848;DHT22;5983;49.966;8.052;2022-09-29T04:38:28;5.40;99.90
11848;DHT22;5983;49.966;8.052;2022-09-29T04:40:55;5.40;99.90
11848;DHT22;5983;49.966;8.052;2022-09-29T04:43:22;5.40;99.90
11848;DHT22;5983;49.966;8.052;2022-09-29T04:45:49;5.40;99.90
11848;DHT22;5983;49.966;8.052;2022-09-29T04:48:16;5.40;99.90
11848;DHT22;5983;49.966;8.052;2022-09-29T04:50:45;5.40;99.90
11848;DHT22;5983;49.966;8.052;2022-09-29T04:53:13;5.30;99.90
11848;DHT22;5983;49.966;8.052;2022-09-29T04:55:40;5.30;99.90
11848;DHT22;5983;49.966;8.052;2022-09-29T04:58:06;5.40;99.90
11848;DHT22;5983;49.966;8.052;2022-09-29T05:00:33;5.30;99.90
11848;DHT22;5983;49.966;8.052;2022-09-29T05:03:00;5.40;99.90
11848;DHT22;5983;49.966;8.052;2022-09-29T05:05:27;5.30;99.90
11848;DHT22;5983;49.966;8.052;2022-09-29T05:07:56;5.40;99.90
11848;DHT22;5983;49.966;8.052;2022-09-29T05:10:24;5.40;99.90
11848;DHT22;5983;49.966;8.052;2022-09-29T05:12:51;5.50;99.90
11848;DHT22;5983;49.966;8.052;2022-09-29T05:15:18;5.50;99.90
11848;DHT22;5983;49.966;8.052;2022-09-29T05:17:46;5.60;99.90
11848;DHT22;5983;49.966;8.052;2022-09-29T05:20:13;5.70;99.90
11848;DHT22;5983;49.966;8.052;2022-09-29T05:22:41;5.70;99.90
11848;DHT22;5983;49.966;8.052;2022-09-29T05:25:09;5.80;99.90
11848;DHT22;5983;49.966;8.052;2022-09-29T05:27:37;5.80;99.90
11848;DHT22;5983;49.966;8.052;2022-09-29T05:30:05;5.70;99.90
11848;DHT22;5983;49.966;8.052;2022-09-29T05:32:32;5.70;99.90
11848;DHT22;5983;49.966;8.052;2022-09-29T05:34:59;5.70;99.90
11848;DHT22;5983;49.966;8.052;2022-09-29T05:37:27;5.80;99.90
11848;DHT22;5983;49.966;8.052;2022-09-29T05:39:53;5.90;99.90
11848;DHT22;5983;49.966;8.052;2022-09-29T05:42:22;5.90;99.90
11848;DHT22;5983;49.966;8.052;2022-09-29T05:44:50;5.90;99.90
11848;DHT22;5983;49.966;8.052;2022-09-29T05:47:17;5.90;99.90
11848;DHT22;5983;49.966;8.052;2022-09-29T05:49:44;5.90;99.90
11848;DHT22;5983;49.966;8.052;2022-09-29T05:52:11;5.80;99.90
11848;DHT22;5983;49.966;8.052;2022-09-29T05:54:37;5.80;99.90
11848;DHT22;5983;49.966;8.052;2022-09-29T05:57:04;5.90;99.90
11848;DHT22;5983;49.966;8.052;2022-09-29T05:59:33;6.00;99.90
11848;DHT22;5983;49.966;8.052;2022-09-29T06:01:59;6.20;99.90
11848;DHT22;5983;49.966;8.052;2022-09-29T06:04:26;6.20;99.90
11848;DHT22;5983;49.966;8.052;2022-09-29T06:06:53;6.30;99.90
11848;DHT22;5983;49.966;8.052;2022-09-29T06:09:21;6.40;99.90
11848;DHT22;5983;49.966;8.052;2022-09-29T06:11:48;6.50;99.90
11848;DHT22;5983;49.966;8.052;2022-09-29T06:14:15;6.50;99.90
11848;DHT22;5983;49.966;8.052;2022-09-29T06:16:44;6.60;99.90
11848;DHT22;5983;49.966;8.052;2022-09-29T06:19:11;6.60;99.90
11848;DHT22;5983;49.966;8.052;2022-09-29T06:21:38;6.70;99.90
11848;DHT22;5983;49.966;8.052;2022-09-29T06:24:05;6.80;99.90
11848;DHT22;5983;49.966;8.052;2022-09-29T06:26:32;6.80;99.90
11848;DHT22;5983;49.966;8.052;2022-09-29T06:29:01;6.80;99.90
11848;DHT22;5983;49.966;8.052;2022-09-29T06:31:29;7.00;99.90
11848;DHT22;5983;49.966;8.052;2022-09-29T06:34:00;7.10;99.90
11848;DHT22;5983;49.966;8.052;2022-09-29T06:36:30;7.10;99.90
11848;DHT22;5983;49.966;8.052;2022-09-29T06:39:17;7.20;99.90
11848;DHT22;5983;49.966;8.052;2022-09-29T06:41:45;7.40;99.90
11848;DHT22;5983;49.966;8.052;2022-09-29T06:44:18;7.50;99.90
11848;DHT22;5983;49.966;8.052;2022-09-29T06:46:45;7.60;99.90
11848;DHT22;5983;49.966;8.052;2022-09-29T06:49:14;7.70;99.90
11848;DHT22;5983;49.966;8.052;2022-09-29T06:51:41;7.70;99.90
11848;DHT22;5983;49.966;8.052;2022-09-29T06:54:09;7.80;99.90
11848;DHT22;5983;49.966;8.052;2022-09-29T06:56:36;7.80;99.90
11848;DHT22;5983;49.966;8.052;2022-09-29T06:59:03;7.80;99.90
11848;DHT22;5983;49.966;8.052;2022-09-29T07:01:30;7.80;99.90
11848;DHT22;5983;49.966;8.052;2022-09-29T07:03:57;7.80;99.90
11848;DHT22;5983;49.966;8.052;2022-09-29T07:06:28;7.90;99.90
11848;DHT22;5983;49.966;8.052;2022-09-29T07:08:56;7.90;99.90
11848;DHT22;5983;49.966;8.052;2022-09-29T07:11:24;8.00;99.90
11848;DHT22;5983;49.966;8.052;2022-09-29T07:13:54;8.00;99.90
11848;DHT22;5983;49.966;8.052;2022-09-29T07:16:21;8.10;99.90
11848;DHT22;5983;49.966;8.052;2022-09-29T07:18:49;8.10;99.90
11848;DHT22;5983;49.966;8.052;2022-09-29T07:21:16;8.20;99.90
11848;DHT22;5983;49.966;8.052;2022-09-29T07:23:45;8.30;99.90
11848;DHT22;5983;49.966;8.052;2022-09-29T07:26:14;8.40;99.90
11848;DHT22;5983;49.966;8.052;2022-09-29T07:28:43;8.50;99.90
11848;DHT22;5983;49.966;8.052;2022-09-29T07:31:12;8.60;99.90
11848;DHT22;5983;49.966;8.052;2022-09-29T07:33:40;8.70;99.90
11848;DHT22;5983;49.966;8.052;2022-09-29T07:36:07;8.80;99.90
11848;DHT22;5983;49.966;8.052;2022-09-29T07:38:34;8.90;99.90
11848;DHT22;5983;49.966;8.052;2022-09-29T07:41:05;8.90;99.90
11848;DHT22;5983;49.966;8.052;2022-09-29T07:43:33;9.00;99.90
11848;DHT22;5983;49.966;8.052;2022-09-29T07:46:00;9.20;99.90
11848;DHT22;5983;49.966;8.052;2022-09-29T07:48:28;9.20;99.90
11848;DHT22;5983;49.966;8.052;2022-09-29T07:51:00;9.40;99.90
11848;DHT22;5983;49.966;8.052;2022-09-29T07:53:28;9.50;99.90
11848;DHT22;5983;49.966;8.052;2022-09-29T07:55:55;9.50;99.90
11848;DHT22;5983;49.966;8.052;2022-09-29T07:58:23;9.60;99.90
11848;DHT22;5983;49.966;8.052;2022-09-29T08:00:54;9.60;99.90
11848;DHT22;5983;49.966;8.052;2022-09-29T08:03:21;9.60;99.90
11848;DHT22;5983;49.966;8.052;2022-09-29T08:05:50;9.60;99.90
11848;DHT22;5983;49.966;8.052;2022-09-29T08:08:17;9.60;99.90
11848;DHT22;5983;49.966;8.052;2022-09-29T08:10:44;9.60;99.90
11848;DHT22;5983;49.966;8.052;2022-09-29T08:13:10;9.60;99.90
11848;DHT22;5983;49.966;8.052;2022-09-29T08:15:39;9.60;99.90
11848;DHT22;5983;49.966;8.052;2022-09-29T08:18:06;9.70;99.90
11848;DHT22;5983;49.966;8.052;2022-09-29T08:20:34;9.80;99.90
11848;DHT22;5983;49.966;8.052;2022-09-29T08:23:01;9.90;99.90
11848;DHT22;5983;49.966;8.052;2022-09-29T08:25:28;10.00;99.90
11848;DHT22;5983;49.966;8.052;2022-09-29T08:27:55;10.20;99.90
11848;DHT22;5983;49.966;8.052;2022-09-29T08:30:22;10.40;99.90
11848;DHT22;5983;49.966;8.052;2022-09-29T08:32:53;10.80;99.90
11848;DHT22;5983;49.966;8.052;2022-09-29T08:35:21;11.30;99.90
11848;DHT22;5983;49.966;8.052;2022-09-29T08:37:48;11.70;99.90
11848;DHT22;5983;49.966;8.052;2022-09-29T08:40:15;12.10;99.90
11848;DHT22;5983;49.966;8.052;2022-09-29T08:42:50;12.40;99.90
11848;DHT22;5983;49.966;8.052;2022-09-29T08:45:29;12.70;99.90
11848;DHT22;5983;49.966;8.052;2022-09-29T08:48:07;13.00;99.90
11848;DHT22;5983;49.966;8.052;2022-09-29T08:50:41;13.30;99.90
11848;DHT22;5983;49.966;8.052;2022-09-29T08:53:15;13.50;99.90
11848;DHT22;5983;49.966;8.052;2022-09-29T08:55:47;13.70;99.90
11848;DHT22;5983;49.966;8.052;2022-09-29T08:58:18;13.90;99.90
11848;DHT22;5983;49.966;8.052;2022-09-29T09:00:53;13.90;99.90
11848;DHT22;5983;49.966;8.052;2022-09-29T09:03:53;14.00;99.90
11848;DHT22;5983;49.966;8.052;2022-09-29T09:06:41;14.40;99.90
11848;DHT22;5983;49.966;8.052;2022-09-29T09:09:32;14.90;99.90
11848;DHT22;5983;49.966;8.052;2022-09-29T09:12:21;15.30;99.90
11848;DHT22;5983;49.966;8.052;2022-09-29T09:15:17;15.90;99.90
11848;DHT22;5983;49.966;8.052;2022-09-29T09:18:06;16.30;99.90
11848;DHT22;5983;49.966;8.052;2022-09-29T09:20:51;16.30;99.90
11848;DHT22;5983;49.966;8.052;2022-09-29T09:23:31;16.30;99.90
11848;DHT22;5983;49.966;8.052;2022-09-29T09:26:04;16.10;99.90
11848;DHT22;5983;49.966;8.052;2022-09-29T09:28:33;15.80;99.90
11848;DHT22;5983;49.966;8.052;2022-09-29T09:31:04;15.50;99.90
11848;DHT22;5983;49.966;8.052;2022-09-29T09:33:38;15.20;99.90
11848;DHT22;5983;49.966;8.052;2022-09-29T09:36:15;14.90;99.90
11848;DHT22;5983;49.966;8.052;2022-09-29T09:38:49;14.80;99.90
11848;DHT22;5983;49.966;8.052;2022-09-29T09:41:23;14.70;99.90
11848;DHT22;5983;49.966;8.052;2022-09-29T09:43:56;14.70;99.90
11848;DHT22;5983;49.966;8.052;2022-09-29T09:46:31;14.80;99.90
11848;DHT22;5983;49.966;8.052;2022-09-29T09:49:13;14.80;99.90
11848;DHT22;5983;49.966;8.052;2022-09-29T09:51:52;14.90;99.90
11848;DHT22;5983;49.966;8.052;2022-09-29T09:54:27;15.00;99.90
11848;DHT22;5983;49.966;8.052;2022-09-29T09:57:34;15.10;99.90
11848;DHT22;5983;49.966;8.052;2022-09-29T10:00:13;15.20;99.90
11848;DHT22;5983;49.966;8.052;2022-09-29T10:02:44;15.30;99.90
11848;DHT22;5983;49.966;8.052;2022-09-29T10:05:14;15.30;99.90
11848;DHT22;5983;49.966;8.052;2022-09-29T10:07:44;15.30;99.90
11848;DHT22;5983;49.966;8.052;2022-09-29T10:10:16;15.30;99.90
11848;DHT22;5983;49.966;8.052;2022-09-29T10:12:47;15.30;99.90
11848;DHT22;5983;49.966;8.052;2022-09-29T10:15:21;15.30;99.90
11848;DHT22;5983;49.966;8.052;2022-09-29T10:18:01;15.50;99.90
11848;DHT22;5983;49.966;8.052;2022-09-29T10:20:34;15.70;99.90
11848;DHT22;5983;49.966;8.052;2022-09-29T10:23:27;16.10;99.90
11848;DHT22;5983;49.966;8.052;2022-09-29T10:26:04;16.60;99.90
11848;DHT22;5983;49.966;8.052;2022-09-29T10:28:40;17.20;99.90
11848;DHT22;5983;49.966;8.052;2022-09-29T10:31:19;17.80;99.90
11848;DHT22;5983;49.966;8.052;2022-09-29T10:33:51;18.10;99.90
11848;DHT22;5983;49.966;8.052;2022-09-29T10:36:22;18.30;99.90
11848;DHT22;5983;49.966;8.052;2022-09-29T10:38:52;18.80;99.90
11848;DHT22;5983;49.966;8.052;2022-09-29T10:41:20;19.20;99.90
11848;DHT22;5983;49.966;8.052;2022-09-29T10:43:50;19.60;99.90
11848;DHT22;5983;49.966;8.052;2022-09-29T10:46:45;19.80;99.90
11848;DHT22;5983;49.966;8.052;2022-09-29T10:49:15;19.70;99.90
11848;DHT22;5983;49.966;8.052;2022-09-29T10:51:53;19.70;99.90
11848;DHT22;5983;49.966;8.052;2022-09-29T10:54:26;20.20;99.90
11848;DHT22;5983;49.966;8.052;2022-09-29T10:56:56;20.30;99.90
11848;DHT22;5983;49.966;8.052;2022-09-29T10:59:24;20.00;99.90
11848;DHT22;5983;49.966;8.052;2022-09-29T11:01:55;19.70;99.90
11848;DHT22;5983;49.966;8.052;2022-09-29T11:04:26;19.20;99.90
11848;DHT22;5983;49.966;8.052;2022-09-29T11:06:58;18.50;99.90
11848;DHT22;5983;49.966;8.052;2022-09-29T11:09:42;18.00;99.90
11848;DHT22;5983;49.966;8.052;2022-09-29T11:12:26;17.50;99.90
11848;DHT22;5983;49.966;8.052;2022-09-29T11:14:56;17.10;99.90
11848;DHT22;5983;49.966;8.052;2022-09-29T11:17:25;16.80;99.90
11848;DHT22;5983;49.966;8.052;2022-09-29T11:19:56;16.70;99.90
11848;DHT22;5983;49.966;8.052;2022-09-29T11:22:46;16.50;99.90
11848;DHT22;5983;49.966;8.052;2022-09-29T11:25:36;16.50;99.90
11848;DHT22;5983;49.966;8.052;2022-09-29T11:28:23;16.90;99.90
11848;DHT22;5983;49.966;8.052;2022-09-29T11:31:14;17.20;99.90
11848;DHT22;5983;49.966;8.052;2022-09-29T11:33:55;17.40;99.90
11848;DHT22;5983;49.966;8.052;2022-09-29T11:36:39;17.50;99.90
11848;DHT22;5983;49.966;8.052;2022-09-29T11:39:24;17.40;99.90
11848;DHT22;5983;49.966;8.052;2022-09-29T11:42:13;17.30;99.90
11848;DHT22;5983;49.966;8.052;2022-09-29T11:44:58;17.10;99.90
11848;DHT22;5983;49.966;8.052;2022-09-29T11:47:43;17.00;99.90
11848;DHT22;5983;49.966;8.052;2022-09-29T11:50:30;16.70;99.90
11848;DHT22;5983;49.966;8.052;2022-09-29T11:53:22;16.50;99.90
11848;DHT22;5983;49.966;8.052;2022-09-29T11:56:09;16.50;99.90
11848;DHT22;5983;49.966;8.052;2022-09-29T11:58:58;16.40;99.90
11848;DHT22;5983;49.966;8.052;2022-09-29T12:01:49;16.20;99.90
11848;DHT22;5983;49.966;8.052;2022-09-29T12:04:35;16.10;99.90
11848;DHT22;5983;49.966;8.052;2022-09-29T12:07:17;16.00;99.90
11848;DHT22;5983;49.966;8.052;2022-09-29T12:10:14;15.90;99.90
11848;DHT22;5983;49.966;8.052;2022-09-29T12:12:55;15.90;99.90
11848;DHT22;5983;49.966;8.052;2022-09-29T12:15:43;15.90;99.90
11848;DHT22;5983;49.966;8.052;2022-09-29T12:18:20;16.00;99.90
11848;DHT22;5983;49.966;8.052;2022-09-29T12:20:54;16.10;99.90
11848;DHT22;5983;49.966;8.052;2022-09-29T12:23:24;16.30;99.90
11848;DHT22;5983;49.966;8.052;2022-09-29T12:25:58;16.50;99.90
11848;DHT22;5983;49.966;8.052;2022-09-29T12:28:35;17.10;99.90
11848;DHT22;5983;49.966;8.052;2022-09-29T12:31:13;17.50;99.90
11848;DHT22;5983;49.966;8.052;2022-09-29T12:33:50;17.70;99.90
11848;DHT22;5983;49.966;8.052;2022-09-29T12:36:42;17.70;99.90
11848;DHT22;5983;49.966;8.052;2022-09-29T12:39:25;17.70;99.90
11848;DHT22;5983;49.966;8.052;2022-09-29T12:42:11;17.70;99.90
11848;DHT22;5983;49.966;8.052;2022-09-29T12:44:49;17.80;99.90
11848;DHT22;5983;49.966;8.052;2022-09-29T12:47:28;17.80;99.90
11848;DHT22;5983;49.966;8.052;2022-09-29T12:50:17;18.00;99.90
11848;DHT22;5983;49.966;8.052;2022-09-29T12:52:52;18.50;99.90
11848;DHT22;5983;49.966;8.052;2022-09-29T12:55:29;19.10;99.90
11848;DHT22;5983;49.966;8.052;2022-09-29T12:58:08;19.30;99.90
11848;DHT22;5983;49.966;8.052;2022-09-29T13:00:42;19.30;99.90
11848;DHT22;5983;49.966;8.052;2022-09-29T13:03:39;19.20;99.90
11848;DHT22;5983;49.966;8.052;2022-09-29T13:06:48;19.10;99.90
11848;DHT22;5983;49.966;8.052;2022-09-29T13:09:43;19.10;99.90
11848;DHT22;5983;49.966;8.052;2022-09-29T13:12:41;19.10;99.90
11848;DHT22;5983;49.966;8.052;2022-09-29T13:15:46;19.00;99.90
11848;DHT22;5983;49.966;8.052;2022-09-29T13:18:51;18.90;99.90
11848;DHT22;5983;49.966;8.052;2022-09-29T13:21:35;18.80;99.90
11848;DHT22;5983;49.966;8.052;2022-09-29T13:24:18;18.60;99.90
11848;DHT22;5983;49.966;8.052;2022-09-29T13:27:20;18.60;99.90
11848;DHT22;5983;49.966;8.052;2022-09-29T13:29:57;18.50;99.90
11848;DHT22;5983;49.966;8.052;2022-09-29T13:32:30;18.40;99.90
11848;DHT22;5983;49.966;8.052;2022-09-29T13:35:01;18.30;99.90
11848;DHT22;5983;49.966;8.052;2022-09-29T13:37:42;18.10;99.90
11848;DHT22;5983;49.966;8.052;2022-09-29T13:40:19;18.00;99.90
11848;DHT22;5983;49.966;8.052;2022-09-29T13:42:50;17.80;99.90
11848;DHT22;5983;49.966;8.052;2022-09-29T13:45:41;17.70;99.90
11848;DHT22;5983;49.966;8.052;2022-09-29T13:48:45;17.60;99.90
11848;DHT22;5983;49.966;8.052;2022-09-29T13:51:52;17.60;99.90
11848;DHT22;5983;49.966;8.052;2022-09-29T13:54:34;17.40;99.90
11848;DHT22;5983;49.966;8.052;2022-09-29T13:57:21;17.40;99.90
11848;DHT22;5983;49.966;8.052;2022-09-29T14:00:22;17.20;99.90
11848;DHT22;5983;49.966;8.052;2022-09-29T14:06:06;17.00;99.90
11848;DHT22;5983;49.966;8.052;2022-09-29T14:08:43;17.10;99.90
11848;DHT22;5983;49.966;8.052;2022-09-29T14:11:21;17.10;99.90
11848;DHT22;5983;49.966;8.052;2022-09-29T14:13:57;17.00;99.90
11848;DHT22;5983;49.966;8.052;2022-09-29T14:19:48;16.70;99.90
11848;DHT22;5983;49.966;8.052;2022-09-29T14:22:51;16.60;99.90
11848;DHT22;5983;49.966;8.052;2022-09-29T14:25:33;16.40;99.90
11848;DHT22;5983;49.966;8.052;2022-09-29T14:28:22;16.20;99.90
11848;DHT22;5983;49.966;8.052;2022-09-29T14:30:56;16.10;99.90
11848;DHT22;5983;49.966;8.052;2022-09-29T14:33:32;15.90;99.90
11848;DHT22;5983;49.966;8.052;2022-09-29T14:36:07;15.70;99.90
11848;DHT22;5983;49.966;8.052;2022-09-29T14:38:42;15.60;99.90
11848;DHT22;5983;49.966;8.052;2022-09-29T14:41:23;15.50;99.90
11848;DHT22;5983;49.966;8.052;2022-09-29T14:43:54;15.40;99.90
11848;DHT22;5983;49.966;8.052;2022-09-29T14:46:40;15.30;99.90
11848;DHT22;5983;49.966;8.052;2022-09-29T14:50:04;15.20;99.90
11848;DHT22;5983;49.966;8.052;2022-09-29T14:53:18;15.20;99.90
11848;DHT22;5983;49.966;8.052;2022-09-29T14:56:04;15.20;99.90
11848;DHT22;5983;49.966;8.052;2022-09-29T14:59:01;15.20;99.90
11848;DHT22;5983;49.966;8.052;2022-09-29T15:01:40;15.10;99.90
11848;DHT22;5983;49.966;8.052;2022-09-29T15:04:26;15.10;99.90
11848;DHT22;5983;49.966;8.052;2022-09-29T15:06:53;15.10;99.90
11848;DHT22;5983;49.966;8.052;2022-09-29T15:09:22;15.00;99.90
11848;DHT22;5983;49.966;8.052;2022-09-29T15:11:52;15.00;99.90
11848;DHT22;5983;49.966;8.052;2022-09-29T15:14:24;15.00;99.90
11848;DHT22;5983;49.966;8.052;2022-09-29T15:17:14;15.10;99.90
11848;DHT22;5983;49.966;8.052;2022-09-29T15:19:51;15.10;99.90
11848;DHT22;5983;49.966;8.052;2022-09-29T15:22:37;15.10;99.90
11848;DHT22;5983;49.966;8.052;2022-09-29T15:25:28;15.10;99.90
11848;DHT22;5983;49.966;8.052;2022-09-29T15:28:00;15.10;99.90
11848;DHT22;5983;49.966;8.052;2022-09-29T15:30:30;14.90;99.90
11848;DHT22;5983;49.966;8.052;2022-09-29T15:33:22;14.70;99.90
11848;DHT22;5983;49.966;8.052;2022-09-29T15:35:56;14.60;99.90
11848;DHT22;5983;49.966;8.052;2022-09-29T15:38:33;14.50;99.90
11848;DHT22;5983;49.966;8.052;2022-09-29T15:41:12;14.40;99.90
11848;DHT22;5983;49.966;8.052;2022-09-29T15:43:43;14.30;99.90
11848;DHT22;5983;49.966;8.052;2022-09-29T15:46:21;14.20;99.90
11848;DHT22;5983;49.966;8.052;2022-09-29T15:49:12;14.10;99.90
11848;DHT22;5983;49.966;8.052;2022-09-29T15:51:44;14.00;99.90
11848;DHT22;5983;49.966;8.052;2022-09-29T15:54:20;14.00;99.90
11848;DHT22;5983;49.966;8.052;2022-09-29T15:56:48;13.90;99.90
11848;DHT22;5983;49.966;8.052;2022-09-29T15:59:44;13.90;99.90
11848;DHT22;5983;49.966;8.052;2022-09-29T16:02:34;13.80;99.90
11848;DHT22;5983;49.966;8.052;2022-09-29T16:05:05;13.70;99.90
11848;DHT22;5983;49.966;8.052;2022-09-29T16:07:38;13.60;99.90
11848;DHT22;5983;49.966;8.052;2022-09-29T16:10:15;13.50;99.90
11848;DHT22;5983;49.966;8.052;2022-09-29T16:12:47;13.50;99.90
11848;DHT22;5983;49.966;8.052;2022-09-29T16:15:25;13.40;99.90
11848;DHT22;5983;49.966;8.052;2022-09-29T16:17:56;13.30;99.90
11848;DHT22;5983;49.966;8.052;2022-09-29T16:20:26;13.20;99.90
11848;DHT22;5983;49.966;8.052;2022-09-29T16:22:56;13.20;99.90
11848;DHT22;5983;49.966;8.052;2022-09-29T16:25:31;13.10;99.90
11848;DHT22;5983;49.966;8.052;2022-09-29T16:27:59;13.10;99.90
11848;DHT22;5983;49.966;8.052;2022-09-29T16:30:30;13.00;99.90
11848;DHT22;5983;49.966;8.052;2022-09-29T16:33:12;12.90;99.90
11848;DHT22;5983;49.966;8.052;2022-09-29T16:35:54;12.80;99.90
11848;DHT22;5983;49.966;8.052;2022-09-29T16:38:38;12.70;99.90
11848;DHT22;5983;49.966;8.052;2022-09-29T16:41:14;12.70;99.90
11848;DHT22;5983;49.966;8.052;2022-09-29T16:43:45;12.60;99.90
11848;DHT22;5983;49.966;8.052;2022-09-29T16:46:19;12.60;99.90
11848;DHT22;5983;49.966;8.052;2022-09-29T16:48:49;12.50;99.90
11848;DHT22;5983;49.966;8.052;2022-09-29T16:51:17;12.50;99.90
11848;DHT22;5983;49.966;8.052;2022-09-29T16:53:47;12.40;99.90
11848;DHT22;5983;49.966;8.052;2022-09-29T16:56:17;12.40;99.90